Wakefield, Mississippi
Current Conditions -  °F | °C
As of 9:55 AM on Sunday 23 Nov 2014 (Local Time) from KUTA Reporting Station
Moderate Rain Moderate Rain  
Wind Chill: 59°   Ceiling: 1100
Heat Index: 59°   Visibility: 7mi
Dew Point: 55°   Wind: 12mph
Humidity: 88%   Direction: 110°ESE
Pressure: 29.62"   Gusts: NA
Location:  34.6957°N, 90.0062°W
Report Text: KUTA 231555Z AUTO 11010KT 7SM RA OVC011 15/13 A2962 RMK AO2 P0010
Loading
Personal Weather Stations






























Interactive Weather Map New forecast layout! Learn more

10-Day Weather Forecast

Advertisements
Track Severe Weather on mobile